Time;durP1;ratioP1;P1;durP2;ratioP2;P2;SDS_P1;SDS_P2;PMS_P1;PMS_P2;Temp;Humidity;BMP_temperature;BMP_pressure;BME280_temperature;BME280_humidity;BME280_pressure;Samples;Min_cycle;Max_cycle;Signal;HPM_P1;HPM_P2
2023/10/31 00:00:11;;;;;;;6.53;4.80;;;;;;;11.46;98.00;99008.38;7399262;19;20015;-67
2023/10/31 00:02:40;;;;;;;9.55;4.63;;;;;;;11.47;98.12;99007.41;7399556;19;20014;-66
2023/10/31 00:05:09;;;;;;;7.28;4.93;;;;;;;11.46;98.30;99013.63;7396577;19;20010;-66
2023/10/31 00:07:37;;;;;;;9.07;5.53;;;;;;;11.48;98.32;99006.50;7397943;19;20014;-65
2023/10/31 00:10:09;;;;;;;11.80;5.07;;;;;;;11.48;98.30;99000.41;7396406;19;20367;-66
2023/10/31 00:12:38;;;;;;;5.70;4.70;;;;;;;11.48;98.44;98992.53;7399296;19;20018;-66
2023/10/31 00:15:08;;;;;;;7.95;4.78;;;;;;;11.48;98.37;98992.53;7398367;19;20400;-66
2023/10/31 00:17:36;;;;;;;8.20;5.05;;;;;;;11.46;98.40;98976.84;7397677;19;20078;-66
2023/10/31 00:20:05;;;;;;;8.13;6.22;;;;;;;11.47;98.54;98967.19;7396568;19;20010;-66
2023/10/31 00:22:33;;;;;;;7.80;4.68;;;;;;;11.46;98.34;98971.59;7398610;19;20082;-66
2023/10/31 00:25:01;;;;;;;5.53;4.88;;;;;;;11.45;98.57;98971.66;7396042;19;20552;-66
2023/10/31 00:27:33;;;;;;;8.20;5.03;;;;;;;11.45;98.54;98964.66;7397020;19;20014;-66
2023/10/31 00:30:01;;;;;;;8.00;4.75;;;;;;;11.45;98.65;98972.53;7396657;19;20010;-66
2023/10/31 00:32:30;;;;;;;5.93;4.90;;;;;;;11.44;98.94;98993.59;7397886;19;20489;-66
2023/10/31 00:34:59;;;;;;;7.03;5.40;;;;;;;11.44;98.88;98997.09;7398074;19;20023;-66
2023/10/31 00:37:27;;;;;;;8.93;5.57;;;;;;;11.42;99.04;98988.44;7397042;19;20017;-66
2023/10/31 00:39:56;;;;;;;8.35;4.85;;;;;;;11.41;99.13;98977.09;7395587;19;20421;-66
2023/10/31 00:42:24;;;;;;;6.57;4.57;;;;;;;11.40;99.25;98985.91;7397501;19;20024;-66
2023/10/31 00:44:55;;;;;;;7.43;5.10;;;;;;;11.40;99.16;98977.19;7393581;19;20483;-66
2023/10/31 00:47:24;;;;;;;7.20;4.68;;;;;;;11.38;99.26;98955.41;7395402;19;20014;-66
2023/10/31 00:49:58;;;;;;;6.40;4.97;;;;;;;11.35;99.25;98932.78;7395988;19;20014;-66
2023/10/31 00:52:27;;;;;;;9.98;6.53;;;;;;;11.31;99.58;98944.38;7397282;19;20006;-66
2023/10/31 00:54:55;;;;;;;7.97;6.28;;;;;;;11.30;99.79;98952.31;7397508;19;20023;-66
2023/10/31 00:57:24;;;;;;;11.88;6.63;;;;;;;11.28;99.96;98943.69;7395134;19;20014;-66
2023/10/31 00:59:55;;;;;;;10.85;7.03;;;;;;;11.27;100.00;98937.56;7396929;19;20033;-66
2023/10/31 01:02:23;;;;;;;13.82;7.85;;;;;;;11.25;100.00;98955.22;7397327;19;20367;-66
2023/10/31 01:04:52;;;;;;;9.25;6.93;;;;;;;11.24;100.00;98959.59;7397175;19;20035;-66
2023/10/31 01:07:20;;;;;;;9.55;6.50;;;;;;;11.24;100.00;98964.84;7396352;19;20014;-66
2023/10/31 01:09:49;;;;;;;6.00;5.00;;;;;;;11.22;100.00;98956.22;7395161;19;20077;-66
2023/10/31 01:12:17;;;;;;;8.77;5.60;;;;;;;11.23;100.00;98955.31;7396889;19;20078;-67
2023/10/31 01:14:45;;;;;;;11.88;5.57;;;;;;;11.20;100.00;98958.06;7396463;19;20027;-66
2023/10/31 01:17:17;;;;;;;5.88;4.53;;;;;;;11.19;100.00;98961.63;7394974;19;20027;-67
2023/10/31 01:19:45;;;;;;;7.70;5.38;;;;;;;11.15;100.00;98960.09;7395460;19;20023;-66
2023/10/31 01:22:13;;;;;;;6.32;4.63;;;;;;;11.14;100.00;98958.38;7395007;19;20035;-66
2023/10/31 01:24:42;;;;;;;6.50;4.78;;;;;;;11.10;100.00;98953.41;7394593;19;20423;-66
2023/10/31 01:27:10;;;;;;;7.22;4.85;;;;;;;11.06;100.00;98937.81;7394225;19;20383;-66
2023/10/31 01:29:39;;;;;;;8.05;5.35;;;;;;;11.02;100.00;98923.16;7394717;19;20478;-66
2023/10/31 01:32:08;;;;;;;7.85;5.20;;;;;;;10.98;100.00;98926.00;7396214;19;20031;-66
2023/10/31 01:34:39;;;;;;;8.35;5.50;;;;;;;10.92;100.00;98935.06;7394596;19;20023;-66
2023/10/31 01:37:07;;;;;;;7.15;4.82;;;;;;;10.89;100.00;98932.59;7396058;19;20011;-66
2023/10/31 01:39:38;;;;;;;7.18;5.43;;;;;;;10.87;100.00;98929.22;7396141;19;20032;-66
2023/10/31 01:42:07;;;;;;;15.23;9.27;;;;;;;10.86;100.00;98917.03;7396508;19;20018;-66
2023/10/31 01:44:36;;;;;;;26.80;23.52;;;;;;;10.86;100.00;98907.34;7394316;19;20023;-66
2023/10/31 01:47:04;;;;;;;19.70;17.83;;;;;;;10.87;100.00;98914.31;7395480;19;20010;-66
2023/10/31 01:49:33;;;;;;;9.70;8.02;;;;;;;10.86;100.00;98907.34;7394761;19;20031;-65
2023/10/31 01:52:05;;;;;;;9.52;7.55;;;;;;;10.88;100.00;98899.41;7393721;19;20592;-66
2023/10/31 01:54:35;;;;;;;9.02;5.97;;;;;;;10.87;100.00;98898.56;7396107;19;20027;-66
2023/10/31 01:57:04;;;;;;;8.48;5.50;;;;;;;10.87;100.00;98897.72;7395011;19;20024;-66
2023/10/31 01:59:34;;;;;;;10.48;8.70;;;;;;;10.87;100.00;98897.72;7393823;19;20018;-66
2023/10/31 02:02:03;;;;;;;23.85;21.48;;;;;;;10.86;100.00;98896.88;7395489;19;20082;-66
2023/10/31 02:04:32;;;;;;;37.95;31.85;;;;;;;10.85;100.00;98900.41;7395307;19;20014;-66
2023/10/31 02:07:00;;;;;;;116.90;89.57;;;;;;;10.84;100.00;98904.00;7394523;19;20480;-66
2023/10/31 02:09:31;;;;;;;126.28;106.00;;;;;;;10.82;100.00;98903.22;7393332;19;20028;-66
2023/10/31 02:12:00;;;;;;;33.00;25.70;;;;;;;10.83;100.00;98906.66;7394870;19;20540;-67
2023/10/31 02:14:28;;;;;;;12.27;11.07;;;;;;;10.81;100.00;98900.69;7395825;19;20073;-66
2023/10/31 02:16:57;;;;;;;11.45;10.23;;;;;;;10.79;100.00;98905.13;7394253;19;20423;-66
2023/10/31 02:19:25;;;;;;;12.18;8.65;;;;;;;10.76;100.00;98886.00;7394653;19;20011;-66
2023/10/31 02:21:56;;;;;;;9.85;8.07;;;;;;;10.74;100.00;98879.13;7395052;19;20015;-67
2023/10/31 02:24:25;;;;;;;7.78;6.80;;;;;;;10.72;100.00;98873.16;7392454;19;20014;-66
2023/10/31 02:26:53;;;;;;;9.18;7.88;;;;;;;10.70;100.00;98868.00;7394411;19;20018;-66
2023/10/31 02:29:22;;;;;;;12.48;10.05;;;;;;;10.69;100.00;98868.03;7392391;19;20505;-66
2023/10/31 02:31:50;;;;;;;14.55;8.13;;;;;;;10.67;100.00;98864.66;7394671;19;20017;-67
2023/10/31 02:34:19;;;;;;;9.95;7.00;;;;;;;10.66;100.00;98858.56;7392222;19;20011;-66
2023/10/31 02:36:47;;;;;;;11.15;7.50;;;;;;;10.65;100.00;98858.66;7392509;19;20033;-66
2023/10/31 02:39:19;;;;;;;10.88;6.88;;;;;;;10.64;100.00;98849.94;7392532;19;20014;-67
2023/10/31 02:41:47;;;;;;;11.88;8.07;;;;;;;10.63;100.00;98858.72;7392180;19;20006;-67
2023/10/31 02:44:17;;;;;;;10.10;7.97;;;;;;;10.62;100.00;98858.81;7392350;19;20022;-67
2023/10/31 02:46:46;;;;;;;11.43;8.18;;;;;;;10.61;100.00;98855.34;7394421;19;20018;-67
2023/10/31 02:49:14;;;;;;;12.73;7.53;;;;;;;10.61;100.00;98855.34;7393165;19;20363;-67
2023/10/31 02:51:43;;;;;;;9.60;7.40;;;;;;;10.59;100.00;98860.66;7391751;19;20007;-67
2023/10/31 02:54:11;;;;;;;12.73;7.63;;;;;;;10.60;100.00;98864.13;7393669;19;20010;-67
2023/10/31 02:56:42;;;;;;;10.02;7.25;;;;;;;10.58;100.00;98866.84;7391853;19;20018;-65
2023/10/31 02:59:11;;;;;;;8.65;6.57;;;;;;;10.58;100.00;98866.84;7394286;19;20027;-65
2023/10/31 03:01:39;;;;;;;9.98;6.90;;;;;;;10.57;100.00;98870.38;7391484;19;20380;-66
2023/10/31 03:04:08;;;;;;;12.45;7.28;;;;;;;10.57;100.00;98865.13;7391355;19;20011;-65
2023/10/31 03:06:36;;;;;;;11.98;7.75;;;;;;;10.56;100.00;98871.31;7393545;19;20019;-66
2023/10/31 03:09:05;;;;;;;27.15;20.73;;;;;;;10.55;100.00;98867.00;7397143;19;20506;-65
2023/10/31 03:11:34;;;;;;;27.85;22.88;;;;;;;10.54;100.00;98867.94;7398338;19;20031;-66
2023/10/31 03:14:06;;;;;;;13.13;11.45;;;;;;;10.54;100.00;98861.81;7398343;19;20015;-66
2023/10/31 03:16:35;;;;;;;12.90;9.32;;;;;;;10.51;100.00;98870.69;7398571;19;20070;-66
2023/10/31 03:19:03;;;;;;;16.55;12.57;;;;;;;10.51;100.00;98868.06;7400735;19;20006;-66
2023/10/31 03:21:32;;;;;;;23.90;20.25;;;;;;;10.51;100.00;98859.38;7400673;19;20036;-66
2023/10/31 03:24:00;;;;;;;30.70;19.77;;;;;;;10.48;100.00;98857.75;7397788;19;20014;-65
2023/10/31 03:26:29;;;;;;;32.20;23.08;;;;;;;10.49;100.00;98856.84;7397296;19;20481;-66
2023/10/31 03:28:57;;;;;;;30.80;27.52;;;;;;;10.49;100.00;98858.59;7397654;19;20027;-66
2023/10/31 03:31:28;;;;;;;27.45;23.13;;;;;;;10.49;100.00;98866.44;7399870;19;20010;-66
2023/10/31 03:33:57;;;;;;;14.45;12.10;;;;;;;10.50;100.00;98870.78;7397319;19;20010;-66
2023/10/31 03:36:25;;;;;;;12.55;10.68;;;;;;;10.49;100.00;98867.31;7397530;19;20011;-66
2023/10/31 03:38:54;;;;;;;18.25;12.15;;;;;;;10.48;100.00;98868.25;7397555;19;20018;-66
2023/10/31 03:41:22;;;;;;;18.70;10.55;;;;;;;10.47;100.00;98869.16;7399467;19;20371;-66
2023/10/31 03:43:51;;;;;;;15.02;9.32;;;;;;;10.48;100.00;98873.47;7399707;19;20014;-66
2023/10/31 03:46:19;;;;;;;14.82;11.13;;;;;;;10.49;100.00;98879.56;7399750;19;20030;-66
2023/10/31 03:48:57;;;;;;;15.73;11.55;;;;;;;10.48;100.00;98873.47;7396927;19;20480;-66
2023/10/31 03:51:25;;;;;;;12.63;10.13;;;;;;;10.49;100.00;98879.56;7397009;19;20023;-66
2023/10/31 03:54:00;;;;;;;15.63;10.70;;;;;;;10.50;100.00;98887.38;7397146;19;20066;-66
2023/10/31 03:56:29;;;;;;;15.45;10.60;;;;;;;10.50;100.00;98884.75;7396699;19;20477;-66
2023/10/31 03:58:58;;;;;;;14.75;11.13;;;;;;;10.51;100.00;98889.03;7399296;19;20030;-66
2023/10/31 04:01:26;;;;;;;15.27;10.85;;;;;;;10.52;100.00;98882.03;7399235;19;20014;-66
2023/10/31 04:03:57;;;;;;;16.33;11.55;;;;;;;10.52;100.00;98896.00;7396774;19;20035;-66
2023/10/31 04:06:26;;;;;;;13.35;10.55;;;;;;;10.53;100.00;98889.00;7399506;19;20018;-66
2023/10/31 04:08:54;;;;;;;17.30;11.88;;;;;;;10.55;100.00;98892.34;7396587;19;20010;-66
2023/10/31 04:11:23;;;;;;;17.77;12.05;;;;;;;10.55;100.00;98885.34;7396458;19;20019;-67
2023/10/31 04:13:52;;;;;;;18.35;12.48;;;;;;;10.56;100.00;98879.19;7398559;19;20006;-66
2023/10/31 04:16:20;;;;;;;16.80;11.95;;;;;;;10.58;100.00;98877.31;7398752;19;20073;-66
2023/10/31 04:18:49;;;;;;;17.33;13.00;;;;;;;10.58;100.00;98868.63;7396261;19;20022;-66
2023/10/31 04:21:20;;;;;;;23.45;17.50;;;;;;;10.61;100.00;98870.22;7396375;19;20080;-66
2023/10/31 04:23:48;;;;;;;21.92;14.43;;;;;;;10.62;100.00;98872.78;7398863;19;20010;-65
2023/10/31 04:26:17;;;;;;;18.83;13.20;;;;;;;10.64;100.00;98875.31;7396591;19;20019;-66
2023/10/31 04:28:45;;;;;;;19.08;12.65;;;;;;;10.65;100.00;98874.38;7396239;19;20015;-66
2023/10/31 04:31:14;;;;;;;20.08;12.75;;;;;;;10.67;100.00;98878.63;7396227;19;20090;-66
2023/10/31 04:33:42;;;;;;;18.70;13.75;;;;;;;10.69;100.00;98870.66;7397843;19;20497;-66
2023/10/31 04:36:11;;;;;;;19.70;14.07;;;;;;;10.71;100.00;98874.06;7398119;19;20014;-66
2023/10/31 04:38:42;;;;;;;18.42;12.57;;;;;;;10.73;100.00;98869.59;7395945;19;20028;-66
2023/10/31 04:41:11;;;;;;;22.92;12.20;;;;;;;10.74;100.00;98866.88;7398303;19;20018;-66
2023/10/31 04:43:41;;;;;;;14.57;11.55;;;;;;;10.76;100.00;98870.25;7395727;19;20074;-66
2023/10/31 04:46:10;;;;;;;16.42;11.50;;;;;;;10.79;100.00;98871.03;7398146;19;20073;-66
2023/10/31 04:48:38;;;;;;;17.02;12.13;;;;;;;10.81;100.00;98870.03;7395627;19;20023;-65
2023/10/31 04:51:07;;;;;;;23.92;16.00;;;;;;;10.82;100.00;98876.97;7395684;19;20074;-66
2023/10/31 04:53:36;;;;;;;19.33;13.82;;;;;;;10.84;100.00;98879.50;7395813;19;20027;-66
2023/10/31 04:56:07;;;;;;;15.98;10.88;;;;;;;10.86;100.00;98890.78;7395180;19;20020;-66
2023/10/31 04:58:36;;;;;;;19.75;11.52;;;;;;;10.86;100.00;98883.75;7395657;19;20078;-66
2023/10/31 05:01:04;;;;;;;17.00;11.73;;;;;;;10.88;100.00;98881.91;7395489;19;20011;-66
2023/10/31 05:03:33;;;;;;;16.90;11.38;;;;;;;10.88;100.00;98879.28;7397127;19;20070;-65
2023/10/31 05:06:01;;;;;;;16.17;11.13;;;;;;;10.90;100.00;98877.41;7394906;19;20019;-65
2023/10/31 05:08:30;;;;;;;17.70;10.98;;;;;;;10.92;100.00;98877.34;7395365;19;20031;-65
2023/10/31 05:10:59;;;;;;;15.82;10.15;;;;;;;10.92;100.00;98870.31;7395425;19;20359;-66
2023/10/31 05:13:30;;;;;;;13.18;10.30;;;;;;;10.94;100.00;98864.13;7396555;19;20422;-65
2023/10/31 05:15:59;;;;;;;13.85;9.75;;;;;;;10.96;100.00;98870.16;7397295;19;20189;-65
2023/10/31 05:18:27;;;;;;;13.60;8.68;;;;;;;10.96;100.00;98871.00;7395191;19;20031;-65
2023/10/31 05:20:56;;;;;;;11.35;7.90;;;;;;;10.98;100.00;98865.66;7394927;19;20074;-65
2023/10/31 05:23:24;;;;;;;13.13;7.57;;;;;;;10.99;100.00;98875.22;7396250;19;20469;-65
2023/10/31 05:25:53;;;;;;;9.50;7.07;;;;;;;11.00;100.00;98877.75;7394227;19;20014;-66
2023/10/31 05:28:21;;;;;;;9.68;6.07;;;;;;;11.01;100.00;98871.59;7394660;19;20018;-65
2023/10/31 05:30:52;;;;;;;7.53;5.03;;;;;;;11.02;100.00;98875.91;7393721;19;20505;-65
2023/10/31 05:33:20;;;;;;;6.07;4.95;;;;;;;11.03;100.00;98875.00;7396570;19;20363;-65
2023/10/31 05:35:49;;;;;;;6.10;4.97;;;;;;;11.05;100.00;98874.91;7396197;19;20015;-65
2023/10/31 05:38:17;;;;;;;5.25;4.75;;;;;;;11.07;100.00;98883.56;7394828;19;20022;-66
2023/10/31 05:40:46;;;;;;;5.25;4.05;;;;;;;11.07;100.00;98878.31;7395753;19;20481;-66
2023/10/31 05:43:15;;;;;;;5.70;4.40;;;;;;;11.08;100.00;98875.59;7395943;19;20018;-66
2023/10/31 05:45:43;;;;;;;7.20;4.90;;;;;;;11.10;100.00;98875.50;7396019;19;20074;-66
2023/10/31 05:48:15;;;;;;;7.03;6.00;;;;;;;11.13;100.00;98883.19;7394117;19;20015;-66
2023/10/31 05:50:44;;;;;;;11.95;8.23;;;;;;;11.14;100.00;98878.81;7395379;19;20024;-66
2023/10/31 05:53:13;;;;;;;13.38;9.35;;;;;;;11.14;100.00;98882.28;7395529;19;20085;-65
2023/10/31 05:55:41;;;;;;;14.23;9.15;;;;;;;11.16;100.00;98888.31;7395705;19;20013;-65
2023/10/31 05:58:10;;;;;;;20.83;11.70;;;;;;;11.17;100.00;98895.25;7394298;19;20021;-65
2023/10/31 06:00:40;;;;;;;17.23;11.70;;;;;;;11.18;100.00;98894.28;7395194;19;20477;-65
2023/10/31 06:03:09;;;;;;;18.33;11.73;;;;;;;11.19;100.00;98887.28;7395221;19;20025;-66
2023/10/31 06:05:40;;;;;;;19.15;12.93;;;;;;;11.20;100.00;98896.88;7395304;19;20010;-65
2023/10/31 06:08:08;;;;;;;22.25;12.82;;;;;;;11.21;100.00;98899.41;7393840;19;20011;-65
2023/10/31 06:10:37;;;;;;;25.35;14.00;;;;;;;11.21;100.00;98902.03;7393964;19;20502;-65
2023/10/31 06:13:05;;;;;;;21.40;13.50;;;;;;;11.23;100.00;98907.19;7395077;19;20074;-66
2023/10/31 06:15:34;;;;;;;22.02;13.18;;;;;;;11.24;100.00;98903.63;7394555;19;20347;-66
2023/10/31 06:18:03;;;;;;;20.15;12.73;;;;;;;11.27;100.00;98907.88;7393274;19;20423;-67
2023/10/31 06:20:31;;;;;;;23.20;13.30;;;;;;;11.27;100.00;98903.44;7395003;19;20079;-65
2023/10/31 06:23:03;;;;;;;17.85;12.23;;;;;;;11.29;100.00;98911.28;7394929;19;20018;-66
2023/10/31 06:25:31;;;;;;;19.15;12.52;;;;;;;11.29;100.00;98913.91;7394211;19;20007;-67
2023/10/31 06:28:00;;;;;;;19.35;13.13;;;;;;;11.31;100.00;98919.91;7392647;19;20498;-67
2023/10/31 06:30:28;;;;;;;22.02;13.43;;;;;;;11.32;100.00;98918.97;7393654;19;20360;-66
2023/10/31 06:32:57;;;;;;;19.25;13.10;;;;;;;11.34;100.00;98932.88;7394528;19;20019;-66
2023/10/31 06:35:27;;;;;;;17.73;12.20;;;;;;;11.35;100.00;98929.31;7394555;19;20019;-66
2023/10/31 06:37:59;;;;;;;17.23;12.38;;;;;;;11.36;100.00;98936.25;7392431;19;20018;-67
2023/10/31 06:40:30;;;;;;;17.83;12.32;;;;;;;11.36;100.00;98941.50;7394038;19;20483;-66
2023/10/31 06:42:59;;;;;;;15.98;12.18;;;;;;;11.38;100.00;98939.66;7395824;19;20027;-66
2023/10/31 06:45:27;;;;;;;16.30;11.52;;;;;;;11.39;100.00;98946.59;7401680;19;20007;-66
2023/10/31 06:47:56;;;;;;;16.27;11.48;;;;;;;11.39;100.00;98947.44;7400018;19;20018;-66
2023/10/31 06:50:25;;;;;;;14.80;10.95;;;;;;;11.40;100.00;98959.63;7400875;19;20363;-66
2023/10/31 06:52:53;;;;;;;12.60;10.27;;;;;;;11.43;100.00;98963.03;7401596;19;20003;-66
2023/10/31 06:55:21;;;;;;;16.20;9.88;;;;;;;11.43;100.00;98966.50;7401046;19;20379;-66
2023/10/31 06:57:52;;;;;;;13.23;9.40;;;;;;;11.43;100.00;98969.13;7399530;19;20011;-66
2023/10/31 07:00:21;;;;;;;12.52;8.52;;;;;;;11.44;100.00;98973.44;7398058;19;20020;-66
2023/10/31 07:02:50;;;;;;;11.10;8.30;;;;;;;11.45;100.00;98969.03;7400943;19;20019;-66
2023/10/31 07:05:20;;;;;;;13.60;8.68;;;;;;;11.46;100.00;98976.00;7401132;19;20014;-66
2023/10/31 07:07:48;;;;;;;13.75;8.52;;;;;;;11.47;100.00;98983.78;7399331;19;20007;-66
2023/10/31 07:10:17;;;;;;;11.45;7.80;;;;;;;11.47;100.00;98985.56;7400617;19;20038;-67
2023/10/31 07:12:46;;;;;;;12.13;8.43;;;;;;;11.48;100.00;98995.97;7400911;19;20078;-65
2023/10/31 07:15:17;;;;;;;8.23;6.82;;;;;;;11.48;100.00;98995.97;7400936;19;20014;-65
2023/10/31 07:17:45;;;;;;;8.20;6.55;;;;;;;11.49;100.00;99000.31;7397728;19;20035;-65
2023/10/31 07:20:14;;;;;;;10.02;7.15;;;;;;;11.49;100.00;99008.19;7397977;19;20010;-67
2023/10/31 07:22:42;;;;;;;7.47;5.50;;;;;;;11.51;100.00;99014.22;7397952;19;20015;-66
2023/10/31 07:25:11;;;;;;;6.72;5.53;;;;;;;11.50;100.00;99023.03;7396939;19;20014;-66
2023/10/31 07:27:40;;;;;;;6.05;4.90;;;;;;;11.50;100.00;99009.88;7397382;19;20400;-66
2023/10/31 07:30:09;;;;;;;5.20;4.70;;;;;;;11.52;100.00;99021.16;7399625;19;20019;-67
2023/10/31 07:32:40;;;;;;;4.80;3.47;;;;;;;11.49;100.00;99042.31;7399954;19;20025;-66
2023/10/31 07:35:09;;;;;;;4.72;3.45;;;;;;;11.49;100.00;99037.06;7399688;19;20027;-66
2023/10/31 07:37:38;;;;;;;2.95;2.42;;;;;;;11.47;100.00;99059.94;7397407;19;20011;-65
2023/10/31 07:40:08;;;;;;;3.17;2.00;;;;;;;11.45;100.00;99048.69;7399843;19;20010;-66
2023/10/31 07:42:36;;;;;;;2.05;1.70;;;;;;;11.43;100.00;99068.91;7396783;19;20007;-68
2023/10/31 07:45:05;;;;;;;3.00;1.52;;;;;;;11.44;100.00;99082.88;7397232;19;20078;-68
2023/10/31 07:47:33;;;;;;;1.10;0.80;;;;;;;11.41;100.00;99100.50;7398455;19;20018;-68
2023/10/31 07:50:04;;;;;;;1.52;0.80;;;;;;;11.37;96.92;99084.97;7398946;19;20477;-68
2023/10/31 07:52:34;;;;;;;0.85;0.70;;;;;;;11.34;97.45;99086.00;7397270;19;20094;-68
2023/10/31 07:55:02;;;;;;;1.25;0.60;;;;;;;11.36;99.24;99099.91;7396073;19;20027;-68
2023/10/31 07:57:31;;;;;;;1.27;0.85;;;;;;;11.34;100.00;99106.16;7398156;19;20074;-68
2023/10/31 07:59:59;;;;;;;3.05;0.90;;;;;;;11.30;100.00;99097.59;7398671;19;20007;-68
2023/10/31 08:02:27;;;;;;;1.73;0.77;;;;;;;11.27;96.50;99113.47;7398789;19;20022;-69
2023/10/31 08:04:56;;;;;;;2.22;1.00;;;;;;;11.25;99.58;99124.06;7396835;19;20070;-68
2023/10/31 08:07:29;;;;;;;1.77;1.08;;;;;;;11.22;95.93;99126.84;7398102;19;20027;-68
2023/10/31 08:09:58;;;;;;;1.10;0.93;;;;;;;11.21;96.75;99119.91;7399316;19;20014;-68
2023/10/31 08:12:27;;;;;;;3.45;1.17;;;;;;;11.22;97.67;99129.47;7396095;19;20074;-69
2023/10/31 08:14:55;;;;;;;2.50;1.05;;;;;;;11.21;93.34;99140.91;7398773;19;20070;-68
2023/10/31 08:17:24;;;;;;;1.13;0.75;;;;;;;11.22;94.90;99139.97;7397654;19;20375;-68
2023/10/31 08:19:52;;;;;;;2.92;0.77;;;;;;;11.21;93.81;99153.19;7398449;19;20011;-68
2023/10/31 08:22:21;;;;;;;1.23;0.70;;;;;;;11.24;94.95;99163.53;7398612;19;20018;-68
2023/10/31 08:24:52;;;;;;;0.50;0.50;;;;;;;11.23;93.27;99146.94;7397440;19;20706;-69
2023/10/31 08:27:21;;;;;;;1.25;0.55;;;;;;;11.27;95.82;99158.09;7397881;19;20015;-68
2023/10/31 08:29:49;;;;;;;2.65;0.60;;;;;;;11.25;91.55;99160.81;7398343;19;20082;-69
2023/10/31 08:32:18;;;;;;;0.98;0.68;;;;;;;11.30;94.16;99155.34;7396054;19;20041;-68
2023/10/31 08:34:46;;;;;;;2.08;0.80;;;;;;;11.33;93.93;99165.69;7397618;19;20086;-69
2023/10/31 08:37:15;;;;;;;1.10;0.70;;;;;;;11.35;91.02;99161.22;7396984;19;20011;-69
2023/10/31 08:39:44;;;;;;;1.80;0.68;;;;;;;11.38;91.90;99171.53;7397897;19;20014;-68
2023/10/31 08:42:15;;;;;;;0.50;0.40;;;;;;;11.42;93.19;99172.25;7398301;19;20041;-69
2023/10/31 08:44:43;;;;;;;1.25;0.60;;;;;;;11.46;93.75;99170.31;7396105;19;20077;-69
2023/10/31 08:47:12;;;;;;;1.48;1.05;;;;;;;11.49;92.79;99175.44;7396495;19;20018;-69
2023/10/31 08:49:40;;;;;;;0.70;0.50;;;;;;;11.51;92.34;99171.81;7395422;19;20035;-68
2023/10/31 08:52:09;;;;;;;0.70;0.60;;;;;;;11.53;92.08;99180.44;7395541;19;20006;-68
2023/10/31 08:54:37;;;;;;;1.35;0.60;;;;;;;11.57;92.67;99182.00;7397290;19;20093;-69
2023/10/31 08:57:06;;;;;;;2.30;0.70;;;;;;;11.59;92.63;99179.28;7395026;19;20473;-67
2023/10/31 08:59:37;;;;;;;1.73;0.68;;;;;;;11.63;92.02;99190.50;7397162;19;20027;-69
2023/10/31 09:02:06;;;;;;;0.82;0.60;;;;;;;11.67;91.52;99190.22;7395862;19;20032;-68
2023/10/31 09:04:35;;;;;;;2.25;0.63;;;;;;;11.71;91.29;99183.03;7396181;19;20371;-69
2023/10/31 09:07:03;;;;;;;1.10;0.60;;;;;;;11.76;91.43;99191.53;7394121;19;20369;-69
2023/10/31 09:09:32;;;;;;;1.05;0.68;;;;;;;11.78;91.82;99194.94;7394819;19;20014;-68
2023/10/31 09:12:00;;;;;;;0.68;0.68;;;;;;;11.82;92.55;99199.09;7395330;19;20027;-68
2023/10/31 09:14:29;;;;;;;1.95;0.63;;;;;;;11.81;89.09;99202.66;7396512;19;20011;-68
2023/10/31 09:17:00;;;;;;;1.15;0.77;;;;;;;11.82;91.43;99201.75;7396295;19;20099;-68
2023/10/31 09:19:28;;;;;;;1.15;0.73;;;;;;;11.82;91.58;99175.47;7397062;19;20082;-68
2023/10/31 09:21:57;;;;;;;3.08;0.90;;;;;;;11.85;92.65;99175.31;7396453;19;20085;-69
2023/10/31 09:24:26;;;;;;;0.80;0.60;;;;;;;11.89;91.77;99179.47;7396203;19;20377;-69
2023/10/31 09:26:55;;;;;;;1.67;0.57;;;;;;;11.92;92.87;99175.84;7395346;19;20024;-68
2023/10/31 09:29:23;;;;;;;2.17;0.85;;;;;;;11.95;92.09;99185.34;7396147;19;20446;-69
2023/10/31 09:31:51;;;;;;;1.35;0.60;;;;;;;11.96;89.66;99187.06;7395345;19;20031;-68
2023/10/31 09:34:23;;;;;;;3.70;0.73;;;;;;;11.97;91.70;99196.66;7395592;19;20481;-68
2023/10/31 09:36:51;;;;;;;0.95;0.70;;;;;;;11.99;89.15;99208.78;7393893;19;20070;-68
2023/10/31 09:39:19;;;;;;;0.93;0.60;;;;;;;12.04;93.17;99211.16;7395803;19;20015;-68
2023/10/31 09:41:50;;;;;;;0.60;0.60;;;;;;;12.08;92.72;99212.72;7396175;19;20074;-69
2023/10/31 09:44:19;;;;;;;1.08;0.80;;;;;;;12.15;92.32;99219.34;7396292;19;20015;-68
2023/10/31 09:46:54;;;;;;;3.22;0.80;;;;;;;12.21;92.69;99219.00;7395419;19;20021;-69
2023/10/31 09:49:33;;;;;;;1.08;0.60;;;;;;;12.29;91.89;99223.03;7395701;19;20018;-68
2023/10/31 09:52:09;;;;;;;2.47;0.73;;;;;;;12.36;91.67;99234.94;7394479;19;20627;-68
2023/10/31 09:54:39;;;;;;;4.07;0.88;;;;;;;12.40;88.07;99228.56;7395656;19;20018;-68
2023/10/31 09:57:09;;;;;;;1.25;0.75;;;;;;;12.47;89.72;99240.47;7393687;19;20028;-68
2023/10/31 09:59:37;;;;;;;1.45;0.70;;;;;;;12.50;88.16;99228.94;7394987;19;20070;-68
2023/10/31 10:02:03;;;;;;;1.02;0.60;;;;;;;12.53;88.55;99236.63;7393143;19;20019;-68
2023/10/31 10:04:36;;;;;;;1.38;0.90;;;;;;;12.53;87.54;99234.84;7395182;19;20018;-69
2023/10/31 10:07:05;;;;;;;3.65;1.10;;;;;;;12.55;89.31;99226.91;7394656;19;20010;-69
2023/10/31 10:09:34;;;;;;;2.28;0.73;;;;;;;12.54;87.08;99231.28;7394768;19;20028;-69
2023/10/31 10:12:03;;;;;;;1.75;0.70;;;;;;;12.55;87.47;99235.63;7394033;19;20007;-70
2023/10/31 10:14:33;;;;;;;2.95;1.17;;;;;;;12.54;88.07;99233.09;7394536;19;20363;-69
2023/10/31 10:17:02;;;;;;;2.20;1.20;;;;;;;12.50;87.20;99237.66;7394381;19;20365;-70
2023/10/31 10:19:30;;;;;;;2.00;1.20;;;;;;;12.48;87.63;99239.50;7400956;19;20015;-70
2023/10/31 10:22:01;;;;;;;1.23;1.00;;;;;;;12.46;86.51;99237.88;7401831;19;20432;-68
2023/10/31 10:24:30;;;;;;;2.67;1.23;;;;;;;12.45;87.77;99237.06;7401838;19;20010;-69
2023/10/31 10:26:58;;;;;;;1.20;0.90;;;;;;;12.43;88.39;99241.53;7398589;19;20483;-69
2023/10/31 10:29:27;;;;;;;2.88;1.15;;;;;;;12.41;88.33;99240.78;7401674;19;20070;-68
2023/10/31 10:31:57;;;;;;;1.77;0.90;;;;;;;12.39;89.13;99232.94;7398216;19;20011;-69
2023/10/31 10:34:26;;;;;;;1.00;0.80;;;;;;;12.38;89.80;99235.69;7401400;19;20026;-69
2023/10/31 10:36:58;;;;;;;3.70;2.20;;;;;;;12.36;90.58;99227.03;7400154;19;20427;-69
2023/10/31 10:39:31;;;;;;;1.40;1.10;;;;;;;12.36;90.70;99227.03;7398840;19;20015;-69
2023/10/31 10:42:03;;;;;;;1.60;1.30;;;;;;;12.36;90.77;99221.78;7400792;19;20007;-68
2023/10/31 10:44:35;;;;;;;3.10;1.02;;;;;;;12.33;89.41;99221.91;7400756;19;20075;-68
2023/10/31 10:47:08;;;;;;;1.80;1.30;;;;;;;12.33;86.89;99228.06;7398542;19;20019;-69
2023/10/31 10:49:38;;;;;;;1.45;1.08;;;;;;;12.32;88.67;99222.84;7401674;19;20010;-69
2023/10/31 10:52:25;;;;;;;3.00;1.30;;;;;;;12.32;89.16;99223.72;7399747;19;20089;-69
2023/10/31 10:55:16;;;;;;;2.75;1.40;;;;;;;12.31;88.70;99223.78;7401440;19;20038;-69
2023/10/31 10:57:51;;;;;;;2.97;1.67;;;;;;;12.28;90.12;99219.53;7399674;19;20035;-69
2023/10/31 11:00:24;;;;;;;1.40;1.10;;;;;;;12.25;89.23;99221.50;7400670;19;20018;-69
2023/10/31 11:02:54;;;;;;;3.35;1.02;;;;;;;12.21;89.00;99224.28;7400310;19;20488;-69
2023/10/31 11:05:23;;;;;;;1.55;1.23;;;;;;;12.22;91.24;99230.41;7400112;19;20017;-69
2023/10/31 11:07:52;;;;;;;9.18;2.30;;;;;;;12.21;92.09;99232.16;7398720;19;20361;-69
2023/10/31 11:10:24;;;;;;;3.03;1.27;;;;;;;12.18;89.30;99240.22;7404272;19;20011;-69
2023/10/31 11:12:53;;;;;;;1.88;1.00;;;;;;;12.18;90.88;99247.25;7399888;19;20006;-68
2023/10/31 11:15:22;;;;;;;2.95;1.10;;;;;;;12.16;90.59;99228.94;7401209;19;20491;-69
2023/10/31 11:17:52;;;;;;;3.13;0.98;;;;;;;12.20;88.80;99242.75;7398591;19;20031;-69
2023/10/31 11:20:21;;;;;;;1.33;1.02;;;;;;;12.20;89.73;99233.09;7401097;19;20521;-69
2023/10/31 11:22:51;;;;;;;2.92;1.30;;;;;;;12.26;88.66;99231.06;7402109;19;20007;-69
2023/10/31 11:25:23;;;;;;;3.70;0.90;;;;;;;12.30;88.50;99233.47;7399130;19;20021;-68
2023/10/31 11:27:52;;;;;;;2.70;0.88;;;;;;;12.36;88.18;99227.03;7398607;19;20077;-67
2023/10/31 11:30:28;;;;;;;2.33;1.05;;;;;;;12.42;88.00;99237.19;7397994;19;20486;-69